Freedom, Wisconsin
Current Conditions -  °F | °C
As of 3:10 AM on Tuesday 21 Oct 2014 (Local Time) from KGRB Reporting Station
Overcast Overcast  
Wind Chill: 40°   Ceiling: 2300
Heat Index: 44°   Visibility: 10mi
Dew Point: 38°   Wind: 8mph
Humidity: 79%   Direction: 340°NNW
Pressure: 30.08"   Gusts: NA
Location:  44.39°N, 88.29°W
Report Text: KGRB 210810Z AUTO 34007KT 10SM BKN023 OVC055 07/03 A3008 RMK AO2 T00670033
Loading
Personal Weather Stations






























Interactive Weather Map
Tropical Storm Tracking
New forecast layout! Learn more

10-Day Weather Forecast

Advertisements
Track Severe Weather on mobile